createdAt,value
2018-03-25T00:02:25.221Z,19.23
2018-03-25T00:04:54.368Z,18.37
2018-03-25T00:07:24.274Z,19.30
2018-03-25T00:09:53.130Z,18.30
2018-03-25T00:12:22.298Z,17.33
2018-03-25T00:14:52.403Z,19.27
2018-03-25T00:17:22.363Z,19.27
2018-03-25T00:19:53.238Z,19.80
2018-03-25T00:22:22.302Z,19.77
2018-03-25T00:24:51.601Z,18.40
2018-03-25T00:29:56.141Z,18.90
2018-03-25T00:32:26.112Z,19.40
2018-03-25T00:34:55.327Z,20.10
2018-03-25T00:37:24.351Z,18.17
2018-03-25T00:39:53.344Z,20.77
2018-03-25T00:42:26.076Z,19.35
2018-03-25T00:44:55.021Z,19.33
2018-03-25T00:47:24.865Z,21.12
2018-03-25T00:49:55.311Z,20.23
2018-03-25T00:52:24.457Z,18.35
2018-03-25T00:54:53.446Z,20.27
2018-03-25T00:59:57.405Z,21.35
2018-03-25T01:02:27.394Z,20.55
2018-03-25T01:04:57.305Z,19.55
2018-03-25T01:07:27.166Z,22.70
2018-03-25T01:09:56.152Z,21.52
2018-03-25T01:12:25.150Z,19.20
2018-03-25T01:14:54.206Z,20.67
2018-03-25T01:17:24.222Z,19.48
2018-03-25T01:19:54.076Z,21.08
2018-03-25T01:22:23.233Z,19.15
2018-03-25T01:24:53.045Z,19.95
2018-03-25T01:27:22.835Z,19.35
2018-03-25T01:29:51.840Z,18.05
2018-03-25T01:32:22.078Z,21.08
2018-03-25T01:34:55.270Z,17.62
2018-03-25T01:37:24.348Z,19.00
2018-03-25T01:39:53.563Z,17.98
2018-03-25T01:44:57.937Z,17.48
2018-03-25T01:47:27.657Z,17.17
2018-03-25T01:49:56.737Z,19.17
2018-03-25T01:52:26.598Z,18.50
2018-03-25T01:54:56.946Z,18.25
2018-03-25T01:57:27.682Z,18.05
2018-03-25T01:59:57.708Z,19.73
2018-03-25T02:02:26.789Z,18.05
2018-03-25T02:04:55.964Z,17.62
2018-03-25T02:07:25.192Z,17.15
2018-03-25T02:09:56.190Z,15.70
2018-03-25T02:12:25.835Z,16.05
2018-03-25T02:14:55.802Z,18.00
2018-03-25T02:17:25.053Z,17.17
2018-03-25T02:22:28.532Z,16.65
2018-03-25T02:24:57.504Z,15.90
2018-03-25T02:27:28.142Z,15.60
2018-03-25T02:29:57.090Z,16.37
2018-03-25T02:32:26.183Z,15.20
2018-03-25T02:37:30.580Z,15.60
2018-03-25T02:40:00.162Z,15.82
2018-03-25T02:42:29.370Z,14.48
2018-03-25T02:45:00.374Z,16.23
2018-03-25T02:47:32.065Z,14.77
2018-03-25T02:50:01.969Z,15.15
2018-03-25T02:52:30.930Z,15.65
2018-03-25T02:55:00.884Z,14.60
2018-03-25T02:57:30.972Z,14.07
2018-03-25T03:00:00.059Z,15.68
2018-03-25T03:02:30.917Z,15.98
2018-03-25T03:05:01.354Z,15.45
2018-03-25T03:07:31.438Z,16.70
2018-03-25T03:10:00.634Z,16.30
2018-03-25T03:12:30.547Z,15.82
2018-03-25T03:14:59.694Z,15.50
2018-03-25T03:17:28.769Z,18.00
2018-03-25T03:19:58.648Z,15.95
2018-03-25T03:22:29.782Z,15.00
2018-03-25T03:24:59.098Z,12.98
2018-03-25T03:27:28.134Z,13.98
2018-03-25T03:29:58.090Z,15.30
2018-03-25T03:32:28.015Z,14.70
2018-03-25T03:34:57.965Z,14.63
2018-03-25T03:37:28.463Z,13.60
2018-03-25T03:39:57.606Z,14.50
2018-03-25T03:42:27.581Z,13.25
2018-03-25T03:44:59.136Z,14.60
2018-03-25T03:47:30.588Z,14.90
2018-03-25T03:49:59.885Z,13.62
2018-03-25T03:52:28.825Z,13.82
2018-03-25T03:54:58.702Z,14.00
2018-03-25T03:57:28.410Z,15.23
2018-03-25T03:59:57.746Z,16.75
2018-03-25T04:02:26.802Z,16.27
2018-03-25T04:04:55.999Z,14.65
2018-03-25T04:07:25.954Z,13.32
2018-03-25T04:09:55.831Z,13.68
2018-03-25T04:12:25.889Z,12.32
2018-03-25T04:14:54.885Z,14.68
2018-03-25T04:17:24.086Z,12.90
2018-03-25T04:19:53.276Z,13.32
2018-03-25T04:22:22.385Z,13.32
2018-03-25T04:24:53.518Z,14.60
2018-03-25T04:27:24.974Z,14.52
2018-03-25T04:29:54.030Z,12.35
2018-03-25T04:32:23.019Z,13.25
2018-03-25T04:34:53.238Z,12.13
2018-03-25T04:37:22.174Z,13.25
2018-03-25T04:39:51.128Z,12.90
2018-03-25T04:42:20.869Z,11.98
2018-03-25T04:44:50.888Z,13.25
2018-03-25T04:47:20.768Z,11.88
2018-03-25T04:49:52.107Z,11.93
2018-03-25T04:52:22.021Z,13.07
2018-03-25T04:54:51.606Z,11.15
2018-03-25T04:57:21.561Z,13.77
2018-03-25T04:59:50.778Z,12.73
2018-03-25T05:02:20.397Z,12.15
2018-03-25T05:04:50.115Z,13.48
2018-03-25T05:07:19.105Z,12.77
2018-03-25T05:09:48.985Z,11.65
2018-03-25T05:12:18.936Z,13.00
2018-03-25T05:14:48.820Z,12.57
2018-03-25T05:17:18.626Z,14.00
2018-03-25T05:19:47.827Z,14.10
2018-03-25T05:22:16.840Z,14.00
2018-03-25T05:24:46.017Z,14.07
2018-03-25T05:27:15.974Z,13.00
2018-03-25T05:29:45.851Z,14.75
2018-03-25T05:32:15.596Z,17.15
2018-03-25T05:34:44.904Z,16.10
2018-03-25T05:37:15.335Z,15.63
2018-03-25T05:39:44.276Z,14.02
2018-03-25T05:42:13.480Z,14.87
2018-03-25T05:44:43.324Z,15.18
2018-03-25T05:47:14.000Z,16.75
2018-03-25T05:52:18.339Z,13.95
2018-03-25T05:54:47.257Z,14.27
2018-03-25T05:57:16.419Z,14.27
2018-03-25T05:59:46.523Z,12.77
2018-03-25T06:02:15.507Z,13.50
2018-03-25T06:04:45.327Z,14.18
2018-03-25T06:07:14.267Z,14.00
2018-03-25T06:09:43.467Z,14.23
2018-03-25T06:12:14.836Z,13.93
2018-03-25T06:14:44.339Z,15.80
2018-03-25T06:17:14.163Z,13.40
2018-03-25T06:19:43.526Z,13.45
2018-03-25T06:22:12.531Z,12.90
2018-03-25T06:24:41.743Z,12.55
2018-03-25T06:27:13.617Z,13.05
2018-03-25T06:29:42.587Z,14.05
2018-03-25T06:32:11.703Z,15.50
2018-03-25T06:34:43.027Z,14.57
2018-03-25T06:37:23.823Z,13.55
2018-03-25T06:39:54.627Z,14.70
2018-03-25T06:42:23.715Z,14.55
2018-03-25T06:44:53.763Z,14.95
2018-03-25T06:47:23.691Z,14.48
2018-03-25T06:49:52.725Z,14.32
2018-03-25T06:52:21.790Z,14.27
2018-03-25T06:54:51.454Z,13.20
2018-03-25T06:57:21.857Z,15.07
2018-03-25T06:59:52.548Z,15.02
2018-03-25T07:02:22.411Z,15.38
2018-03-25T07:04:52.488Z,16.40
2018-03-25T07:07:21.572Z,18.95
2018-03-25T07:09:50.715Z,14.52
2018-03-25T07:12:19.709Z,16.12
2018-03-25T07:14:48.922Z,15.60
2018-03-25T07:17:18.065Z,14.75
2018-03-25T07:19:48.217Z,14.77
2018-03-25T07:22:19.105Z,14.50
2018-03-25T07:24:48.123Z,13.60
2018-03-25T07:27:17.132Z,19.33
2018-03-25T07:29:46.313Z,18.55
2018-03-25T07:32:19.497Z,17.85
2018-03-25T07:34:54.744Z,12.48
2018-03-25T07:37:25.796Z,17.10
2018-03-25T07:39:56.569Z,18.75
2018-03-25T07:42:26.586Z,19.80
2018-03-25T07:47:34.888Z,17.08
2018-03-25T07:50:04.079Z,14.32
2018-03-25T07:52:34.629Z,16.10
2018-03-25T07:55:04.627Z,17.42
2018-03-25T07:57:34.735Z,13.60
2018-03-25T08:00:04.067Z,13.55
2018-03-25T08:02:33.217Z,12.27
2018-03-25T08:05:02.441Z,13.45
2018-03-25T08:10:06.571Z,18.20
2018-03-25T08:12:37.247Z,17.75
2018-03-25T08:15:07.400Z,17.10
2018-03-25T08:17:36.828Z,20.23
2018-03-25T08:20:06.796Z,19.83
2018-03-25T08:22:37.613Z,20.85
2018-03-25T08:25:09.438Z,20.08
2018-03-25T08:27:38.609Z,18.42
2018-03-25T08:30:08.907Z,16.65
2018-03-25T08:32:40.219Z,18.75
2018-03-25T08:35:12.990Z,18.85
2018-03-25T08:37:43.185Z,17.45
2018-03-25T14:05:01.088Z,16.10
2018-03-25T14:07:30.462Z,15.13
2018-03-25T14:10:00.511Z,15.13
2018-03-25T14:12:32.290Z,17.63
2018-03-25T14:15:02.931Z,21.53
2018-03-25T14:17:34.174Z,15.50
2018-03-25T14:20:05.053Z,17.73
2018-03-25T14:22:35.058Z,16.00
2018-03-25T14:27:40.662Z,18.13
2018-03-25T14:30:10.436Z,19.30
2018-03-25T14:32:41.878Z,20.80
2018-03-25T14:35:12.014Z,19.63
2018-03-25T14:37:43.947Z,18.33
2018-03-25T14:40:14.101Z,21.73
2018-03-25T14:42:46.266Z,19.63
2018-03-25T14:45:17.909Z,19.87
2018-03-25T14:47:47.612Z,15.53
2018-03-25T14:50:18.087Z,21.30
2018-03-25T14:52:51.977Z,18.77
2018-03-25T14:58:41.891Z,18.97
2018-03-25T15:01:13.070Z,18.20
2018-03-25T15:03:43.288Z,18.80
2018-03-25T15:06:15.595Z,19.40
2018-03-25T15:08:47.629Z,19.47
2018-03-25T15:11:19.258Z,17.83
2018-03-25T15:13:48.682Z,18.27
2018-03-25T15:16:18.677Z,17.97
2018-03-25T15:18:48.776Z,17.50
2018-03-25T15:21:21.759Z,17.70
2018-03-25T15:23:51.369Z,18.57
2018-03-25T15:26:23.138Z,15.23
2018-03-25T15:28:53.418Z,18.40
2018-03-25T15:31:22.808Z,18.10
2018-03-25T15:33:53.752Z,16.90
2018-03-25T15:36:24.227Z,18.77
2018-03-25T15:38:53.194Z,20.10
2018-03-25T15:43:56.201Z,14.27
2018-03-25T15:46:25.340Z,13.87
2018-03-25T15:48:55.181Z,16.77
2018-03-25T15:51:25.401Z,20.73
2018-03-25T15:53:54.632Z,21.83
2018-03-25T15:56:25.606Z,21.37
2018-03-25T15:58:54.589Z,18.50
2018-03-25T16:01:23.845Z,17.03
2018-03-25T16:03:53.792Z,15.40
2018-03-25T16:06:22.940Z,17.27
2018-03-25T16:08:51.741Z,19.10
2018-03-25T16:11:21.814Z,23.83
2018-03-25T16:13:50.836Z,20.77
2018-03-25T16:16:19.882Z,19.87
2018-03-25T16:18:49.089Z,17.00
2018-03-25T16:21:19.223Z,17.10
2018-03-25T16:23:48.348Z,16.00
2018-03-25T16:26:18.375Z,20.00
2018-03-25T16:28:48.602Z,17.63
2018-03-25T16:31:18.227Z,18.57
2018-03-25T16:33:47.408Z,18.30
2018-03-25T16:36:16.526Z,16.70
2018-03-25T16:38:46.572Z,17.10
2018-03-25T16:41:15.813Z,17.40
2018-03-25T16:46:13.271Z,28.57
2018-03-25T16:48:42.600Z,20.63
2018-03-25T16:51:12.079Z,23.20
2018-03-25T16:53:42.757Z,27.03
2018-03-25T16:56:12.973Z,25.00
2018-03-25T16:58:42.596Z,22.60
2018-03-25T17:01:11.558Z,23.10
2018-03-25T17:03:40.662Z,24.20
2018-03-25T17:06:11.078Z,23.70
2018-03-25T17:08:40.281Z,26.47
2018-03-25T17:11:11.307Z,27.97
2018-03-25T17:13:40.513Z,22.37
2018-03-25T17:16:10.224Z,27.50
2018-03-25T17:18:39.453Z,31.30
2018-03-25T17:21:11.774Z,26.20
2018-03-25T17:23:40.872Z,28.10
2018-03-25T17:26:09.872Z,28.10
2018-03-25T17:28:43.831Z,30.60
2018-03-25T17:31:13.809Z,31.43
2018-03-25T17:33:43.211Z,27.03
2018-03-25T17:36:15.344Z,28.00
2018-03-25T17:38:44.532Z,26.30
2018-03-25T17:41:14.707Z,23.07
2018-03-25T17:43:45.125Z,25.97
2018-03-25T17:46:14.315Z,43.50
2018-03-25T17:48:43.625Z,27.87
2018-03-25T17:51:13.581Z,34.17
2018-03-25T17:53:42.791Z,44.93
2018-03-25T17:56:12.436Z,27.27
2018-03-25T17:58:42.983Z,28.97
2018-03-25T18:01:12.125Z,29.60
2018-03-25T18:03:42.553Z,25.57
2018-03-25T18:06:12.535Z,23.27
2018-03-25T18:08:42.359Z,18.87
2018-03-25T18:11:12.052Z,21.83
2018-03-25T18:13:44.552Z,22.03
2018-03-25T18:16:13.923Z,23.70
2018-03-25T18:18:43.785Z,21.10
2018-03-25T18:23:48.183Z,23.50
2018-03-25T18:26:18.307Z,21.80
2018-03-25T18:28:48.853Z,20.67
2018-03-25T18:31:19.651Z,19.50
2018-03-25T18:33:50.148Z,18.33
2018-03-25T18:36:28.433Z,21.40
2018-03-25T18:38:59.627Z,21.03
2018-03-25T18:41:29.762Z,19.00
2018-03-25T18:43:59.507Z,22.70
2018-03-25T18:46:29.158Z,23.63
2018-03-25T18:48:58.682Z,20.17
2018-03-25T18:51:28.551Z,20.70
2018-03-25T18:54:00.394Z,21.63
2018-03-25T18:56:29.787Z,21.10
2018-03-25T18:58:59.527Z,21.47
2018-03-25T19:01:29.690Z,22.63
2018-03-25T19:03:59.283Z,24.67
2018-03-25T19:06:29.672Z,21.10
2018-03-25T19:08:59.860Z,24.23
2018-03-25T19:11:29.864Z,21.27
2018-03-25T19:13:59.398Z,22.53
2018-03-25T19:19:03.444Z,20.80
2018-03-25T19:21:35.575Z,20.50
2018-03-25T19:24:05.852Z,25.27
2018-03-25T19:26:36.036Z,20.10
2018-03-25T19:29:06.511Z,18.77
2018-03-25T19:31:35.370Z,20.90
2018-03-25T19:34:04.325Z,27.97
2018-03-25T19:36:35.366Z,19.70
2018-03-25T19:39:04.734Z,18.83
2018-03-25T19:41:35.098Z,19.63
2018-03-25T19:44:07.060Z,18.77
2018-03-25T19:49:37.243Z,18.40
2018-03-25T19:52:06.852Z,17.80
2018-03-25T19:54:36.635Z,21.50
2018-03-25T19:57:06.446Z,20.40
2018-03-25T19:59:35.678Z,26.47
2018-03-25T20:02:04.780Z,20.63
2018-03-25T20:04:34.590Z,19.37
2018-03-25T20:07:03.894Z,18.67
2018-03-25T20:09:33.095Z,19.50
2018-03-25T20:12:03.159Z,16.60
2018-03-25T20:14:32.410Z,21.27
2018-03-25T20:17:01.462Z,19.17
2018-03-25T20:19:31.843Z,19.27
2018-03-25T20:22:00.878Z,20.90
2018-03-25T20:24:30.147Z,19.23
2018-03-25T20:26:59.319Z,20.27
2018-03-25T20:29:28.534Z,17.80
2018-03-25T20:31:57.635Z,18.80
2018-03-25T20:34:26.677Z,17.83
2018-03-25T20:36:57.315Z,19.33
2018-03-25T20:39:26.690Z,19.57
2018-03-25T20:41:56.644Z,19.67
2018-03-25T20:44:26.530Z,19.00
2018-03-25T20:46:55.638Z,19.67
2018-03-25T20:49:25.110Z,18.93
2018-03-25T20:51:54.655Z,18.30
2018-03-25T20:54:23.823Z,19.80
2018-03-25T20:56:53.024Z,18.87
2018-03-25T20:59:21.854Z,19.00
2018-03-25T21:01:52.506Z,19.17
2018-03-25T21:04:21.510Z,18.67
2018-03-25T21:06:51.010Z,22.00
2018-03-25T21:09:25.273Z,19.00
2018-03-25T21:11:54.502Z,20.13
2018-03-25T21:14:23.630Z,19.57
2018-03-25T21:16:54.415Z,17.30
2018-03-25T21:19:24.080Z,19.67
2018-03-25T21:21:58.316Z,18.60
2018-03-25T21:24:28.849Z,18.10
2018-03-25T21:26:58.694Z,18.67
2018-03-25T21:29:27.666Z,16.30
2018-03-25T21:31:57.391Z,17.47
2018-03-25T21:34:28.321Z,20.47
2018-03-25T21:36:58.100Z,18.10
2018-03-25T21:39:27.255Z,18.70
2018-03-25T21:41:56.346Z,17.40
2018-03-25T21:44:26.192Z,17.40
2018-03-25T21:46:56.350Z,17.13
2018-03-25T21:49:27.832Z,18.60
2018-03-25T21:51:57.068Z,18.33
2018-03-25T21:54:26.729Z,17.60
2018-03-25T21:56:56.908Z,17.00
2018-03-25T21:59:26.155Z,18.93
2018-03-25T22:01:55.755Z,19.17
2018-03-25T22:04:26.658Z,17.33
2018-03-25T22:06:55.772Z,19.70
2018-03-25T22:09:25.689Z,18.40
2018-03-25T22:11:55.983Z,17.57
2018-03-25T22:14:25.485Z,17.63
2018-03-25T22:16:55.343Z,19.00
2018-03-25T22:19:25.888Z,17.57
2018-03-25T22:21:55.028Z,18.97
2018-03-25T22:24:24.845Z,18.00
2018-03-25T22:29:29.781Z,16.87
2018-03-25T22:31:59.644Z,18.03
2018-03-25T22:34:30.949Z,17.50
2018-03-25T22:37:00.432Z,19.07
2018-03-25T22:39:29.501Z,17.53
2018-03-25T22:42:00.505Z,18.70
2018-03-25T22:44:29.601Z,20.13
2018-03-25T22:46:59.618Z,18.17
2018-03-25T22:49:31.542Z,18.67
2018-03-25T22:52:01.412Z,18.33
2018-03-25T22:54:30.592Z,19.70
2018-03-25T22:57:00.720Z,19.20
2018-03-25T22:59:33.293Z,20.30
2018-03-25T23:02:02.892Z,17.53
2018-03-25T23:04:33.360Z,20.97
2018-03-25T23:07:02.486Z,19.40
2018-03-25T23:09:32.521Z,18.87
2018-03-25T23:12:01.933Z,17.10
2018-03-25T23:14:31.309Z,19.30
2018-03-25T23:17:02.418Z,18.80
2018-03-25T23:19:31.432Z,20.90
2018-03-25T23:22:00.654Z,19.30
2018-03-25T23:24:29.953Z,19.27
2018-03-25T23:26:59.395Z,17.77
2018-03-25T23:29:28.628Z,21.00
2018-03-25T23:31:59.425Z,21.67
2018-03-25T23:34:29.434Z,20.03
2018-03-25T23:36:58.534Z,20.33
2018-03-25T23:39:28.098Z,21.40
2018-03-25T23:41:57.213Z,20.40
2018-03-25T23:44:26.234Z,18.97
2018-03-25T23:46:59.165Z,22.17
2018-03-25T23:49:28.868Z,21.00
2018-03-25T23:52:01.077Z,21.07
2018-03-25T23:54:30.198Z,20.30
2018-03-25T23:57:00.062Z,24.13
2018-03-25T23:59:30.123Z,19.43
